Time;durP1;ratioP1;P1;durP2;ratioP2;P2;SDS_P1;SDS_P2;PMS_P1;PMS_P2;Temp;Humidity;BMP_temperature;BMP_pressure;BME280_temperature;BME280_humidity;BME280_pressure;Samples;Min_cycle;Max_cycle;Signal;HPM_P1;HPM_P2
2021/03/24 00:00:26;;;;;;;31.20;22.60;;;;;;;3.94;100.00;101691.22;4993331;28;20212;-68
2021/03/24 00:02:55;;;;;;;31.80;22.70;;;;;;;4.08;100.00;101686.69;5010770;28;20212;-68
2021/03/24 00:05:37;;;;;;;34.60;23.50;;;;;;;4.04;100.00;101686.28;5009724;28;20217;-68
2021/03/24 00:08:03;;;;;;;32.00;22.87;;;;;;;4.02;100.00;101682.16;4995415;28;20185;-68
2021/03/24 00:10:32;;;;;;;33.57;23.37;;;;;;;3.96;100.00;101677.59;5010891;28;20671;-68
2021/03/24 00:12:58;;;;;;;35.00;23.37;;;;;;;4.01;100.00;101677.78;5014391;28;20176;-67
2021/03/24 00:15:26;;;;;;;32.87;22.43;;;;;;;3.88;100.00;101678.63;5021176;28;20227;-68
2021/03/24 00:17:52;;;;;;;35.20;24.07;;;;;;;3.70;100.00;101677.53;5013585;28;20836;-68
2021/03/24 00:20:19;;;;;;;34.53;23.67;;;;;;;3.71;100.00;101675.69;5016544;28;20271;-68
2021/03/24 00:22:47;;;;;;;37.80;24.27;;;;;;;3.48;100.00;101670.66;4976577;28;20216;-69
2021/03/24 00:25:15;;;;;;;35.87;24.47;;;;;;;3.46;100.00;101679.94;4993509;28;20204;-68
2021/03/24 00:27:44;;;;;;;32.13;21.77;;;;;;;3.19;100.00;101680.06;4998282;28;20181;-68
2021/03/24 00:30:12;;;;;;;33.03;23.40;;;;;;;3.14;100.00;101687.88;4992842;28;20181;-68
2021/03/24 00:32:38;;;;;;;34.03;23.10;;;;;;;3.14;100.00;101685.19;4993188;28;20189;-68
2021/03/24 00:35:05;;;;;;;38.27;24.87;;;;;;;3.07;100.00;101701.25;4993032;28;20184;-67
2021/03/24 00:37:33;;;;;;;34.97;24.10;;;;;;;3.06;100.00;101693.41;4977348;28;20188;-68
2021/03/24 00:39:58;;;;;;;35.53;22.77;;;;;;;3.08;100.00;101688.66;4993094;28;20189;-67
2021/03/24 00:42:24;;;;;;;33.83;23.03;;;;;;;3.25;100.00;101695.34;4991995;28;20228;-68
2021/03/24 00:44:49;;;;;;;35.03;23.50;;;;;;;3.49;100.00;101691.09;5021085;28;20234;-69
2021/03/24 00:47:17;;;;;;;35.97;23.83;;;;;;;3.55;100.00;101698.38;5028850;28;20219;-68
2021/03/24 00:49:45;;;;;;;32.27;23.67;;;;;;;3.63;100.00;101683.94;5029399;28;20206;-68
2021/03/24 00:52:11;;;;;;;34.90;23.97;;;;;;;3.80;100.00;101680.66;5011369;28;20653;-67
2021/03/24 00:54:37;;;;;;;39.93;23.50;;;;;;;4.00;100.00;101681.53;5029070;28;20188;-68
2021/03/24 00:57:02;;;;;;;36.10;24.23;;;;;;;4.09;100.00;101680.28;4989982;28;20223;-70
2021/03/24 00:59:28;;;;;;;35.70;24.83;;;;;;;4.05;100.00;101687.13;4976918;28;20662;-68
2021/03/24 01:01:57;;;;;;;32.97;23.33;;;;;;;4.23;100.00;101682.75;4991403;28;20287;-67
2021/03/24 01:04:25;;;;;;;31.27;22.43;;;;;;;4.09;100.00;101680.28;5010581;28;20273;-69
2021/03/24 01:06:50;;;;;;;29.17;21.53;;;;;;;4.34;100.00;101680.31;4992784;28;20227;-68
2021/03/24 01:09:16;;;;;;;30.03;21.80;;;;;;;4.29;100.00;101677.41;4976896;28;20241;-68
2021/03/24 01:11:41;;;;;;;33.17;21.93;;;;;;;4.37;100.00;101673.69;4991011;28;20240;-69
2021/03/24 01:14:08;;;;;;;31.00;21.30;;;;;;;4.20;100.00;101662.50;4968187;28;20928;-68
2021/03/24 01:16:35;;;;;;;30.40;22.23;;;;;;;4.26;100.00;101666.22;4994312;28;20219;-68
2021/03/24 01:19:01;;;;;;;30.33;21.67;;;;;;;4.26;100.00;101672.44;5012634;28;20556;-67
2021/03/24 01:21:29;;;;;;;29.63;22.60;;;;;;;4.21;100.00;101677.63;5011788;28;20233;-67
2021/03/24 01:23:55;;;;;;;30.77;22.07;;;;;;;4.32;100.00;101674.31;5011677;28;20188;-67
2021/03/24 01:26:21;;;;;;;29.87;22.17;;;;;;;4.46;100.00;101667.06;5029149;28;20222;-68
2021/03/24 01:28:57;;;;;;;33.63;22.83;;;;;;;4.65;100.00;101667.88;5008950;28;20181;-68
2021/03/24 01:31:29;;;;;;;37.00;24.00;;;;;;;4.52;100.00;101666.22;4993489;28;20232;-68
2021/03/24 01:33:57;;;;;;;38.43;26.17;;;;;;;4.44;100.00;101664.56;4992098;28;20762;-67
2021/03/24 01:36:23;;;;;;;34.33;24.43;;;;;;;4.62;100.00;101657.50;4992372;28;20271;-68
2021/03/24 01:38:49;;;;;;;42.13;28.03;;;;;;;4.61;100.00;101655.03;4976909;28;20192;-68
2021/03/24 01:41:17;;;;;;;40.33;26.90;;;;;;;4.64;100.00;101663.50;4992593;28;20235;-69
2021/03/24 01:43:45;;;;;;;37.73;26.27;;;;;;;4.75;100.00;101657.50;5016288;28;20185;-67
2021/03/24 01:46:20;;;;;;;41.73;27.00;;;;;;;4.78;100.00;101649.00;5023999;28;20684;-67
2021/03/24 01:48:58;;;;;;;45.03;28.70;;;;;;;4.89;100.00;101642.97;5030346;28;20192;-68
2021/03/24 01:51:45;;;;;;;49.13;30.20;;;;;;;4.83;100.00;101645.66;5027967;28;20285;-68
2021/03/24 01:54:12;;;;;;;51.87;30.77;;;;;;;4.66;100.00;101645.28;5012954;28;20223;-68
2021/03/24 01:56:42;;;;;;;54.00;31.27;;;;;;;4.74;100.00;101644.25;4993187;28;20216;-67
2021/03/24 01:59:07;;;;;;;51.33;32.43;;;;;;;4.79;100.00;101637.19;4972901;28;20272;-67
2021/03/24 02:01:33;;;;;;;55.83;32.47;;;;;;;4.92;100.00;101639.03;4964833;28;20355;-73
2021/03/24 02:04:03;;;;;;;54.10;33.53;;;;;;;4.97;100.00;101636.53;4991360;28;20189;-67
2021/03/24 02:06:40;;;;;;;55.67;34.63;;;;;;;5.03;100.00;101631.94;5008253;28;20591;-67
2021/03/24 02:09:12;;;;;;;60.20;35.17;;;;;;;4.91;100.00;101629.28;4993158;28;20235;-68
2021/03/24 02:11:47;;;;;;;57.87;33.60;;;;;;;4.89;100.00;101650.19;4975109;28;20235;-70
2021/03/24 02:14:18;;;;;;;57.57;33.33;;;;;;;5.04;100.00;101633.59;4992712;28;20185;-70
2021/03/24 02:16:48;;;;;;;53.00;33.13;;;;;;;5.07;100.00;101638.56;4975853;28;20213;-69
2021/03/24 02:19:37;;;;;;;56.57;33.00;;;;;;;4.99;100.00;101637.97;4992812;28;20177;-68
2021/03/24 02:22:03;;;;;;;56.33;33.33;;;;;;;5.01;100.00;101641.28;4954370;28;20270;-69
2021/03/24 02:24:38;;;;;;;56.00;33.07;;;;;;;4.87;100.00;101628.91;4994415;28;20185;-67
2021/03/24 02:27:03;;;;;;;55.67;33.00;;;;;;;5.09;100.00;101632.94;5016369;28;20709;-70
2021/03/24 02:29:29;;;;;;;59.83;34.90;;;;;;;5.23;100.00;101640.75;5011680;28;20227;-67
2021/03/24 02:31:56;;;;;;;65.43;36.17;;;;;;;5.09;100.00;101639.19;4994428;28;20228;-67
2021/03/24 02:34:25;;;;;;;63.23;34.77;;;;;;;5.14;100.00;101633.97;4996599;28;20571;-67
2021/03/24 02:36:56;;;;;;;58.13;34.13;;;;;;;5.03;100.00;101633.81;4998553;28;20205;-67
2021/03/24 02:39:25;;;;;;;60.87;34.20;;;;;;;5.12;100.00;101627.97;4980392;28;20185;-70
2021/03/24 02:41:50;;;;;;;62.27;35.63;;;;;;;5.26;100.00;101626.88;5010451;28;20288;-70
2021/03/24 02:44:16;;;;;;;58.73;35.13;;;;;;;5.32;100.00;101634.09;4995523;28;20177;-69
2021/03/24 02:46:41;;;;;;;66.33;36.77;;;;;;;5.30;100.00;101629.97;4978787;28;20235;-70
2021/03/24 02:49:07;;;;;;;62.10;36.00;;;;;;;5.43;100.00;101630.72;4995424;28;20196;-67
2021/03/24 02:51:35;;;;;;;62.17;36.00;;;;;;;5.30;100.00;101625.41;4995076;28;20221;-69
2021/03/24 02:54:06;;;;;;;59.13;36.03;;;;;;;5.41;100.00;101619.34;5011023;28;20232;-69
2021/03/24 02:56:31;;;;;;;62.27;35.97;;;;;;;5.41;100.00;101624.72;4999540;28;20234;-70
2021/03/24 02:58:57;;;;;;;58.43;35.57;;;;;;;5.36;100.00;101609.19;5011454;28;20177;-69
2021/03/24 03:01:27;;;;;;;59.20;34.43;;;;;;;5.51;100.00;101619.69;4979142;28;20237;-66
2021/03/24 03:03:56;;;;;;;61.90;35.97;;;;;;;5.56;100.00;101615.31;4962491;28;20177;-69
2021/03/24 03:06:23;;;;;;;66.23;36.73;;;;;;;5.71;100.00;101617.72;4978600;28;20231;-69
2021/03/24 03:09:01;;;;;;;63.13;35.57;;;;;;;5.34;100.00;101615.03;4962695;28;20185;-68
2021/03/24 03:11:33;;;;;;;60.87;36.03;;;;;;;5.53;100.00;101620.31;5011873;28;20232;-67
2021/03/24 03:14:04;;;;;;;64.10;35.90;;;;;;;5.59;100.00;101612.19;5010551;28;20177;-69
2021/03/24 03:16:38;;;;;;;68.20;38.57;;;;;;;5.65;100.00;101611.31;4995112;28;20224;-70
2021/03/24 03:19:13;;;;;;;62.07;36.23;;;;;;;5.56;100.00;101614.50;4995537;28;20192;-68
2021/03/24 03:21:43;;;;;;;68.03;36.17;;;;;;;5.53;100.00;101599.59;4994660;28;20221;-71
2021/03/24 03:24:10;;;;;;;64.67;36.03;;;;;;;5.50;100.00;101596.50;4979177;28;20701;-70
2021/03/24 03:26:36;;;;;;;66.00;37.00;;;;;;;5.51;100.00;101600.84;4998516;28;20706;-68
2021/03/24 03:29:08;;;;;;;66.80;38.07;;;;;;;5.31;100.00;101597.44;5011151;28;20209;-69
2021/03/24 03:31:35;;;;;;;67.67;36.80;;;;;;;5.46;100.00;101603.38;4994206;28;20225;-69
2021/03/24 03:34:01;;;;;;;66.03;36.50;;;;;;;5.55;100.00;101602.91;4994168;28;20923;-69
2021/03/24 03:36:26;;;;;;;64.57;36.93;;;;;;;5.47;100.00;101602.31;4993448;28;20228;-69
2021/03/24 03:38:55;;;;;;;66.23;36.03;;;;;;;5.48;100.00;101595.91;4978743;28;20207;-67
2021/03/24 03:41:23;;;;;;;62.13;36.50;;;;;;;5.58;100.00;101590.84;4995151;28;20276;-69
2021/03/24 03:43:51;;;;;;;64.00;36.20;;;;;;;5.66;100.00;101601.34;4994908;28;20185;-68
2021/03/24 03:46:18;;;;;;;65.83;37.30;;;;;;;5.49;100.00;101598.34;4995065;28;20225;-67
2021/03/24 03:48:47;;;;;;;62.43;36.80;;;;;;;5.60;100.00;101600.34;5011617;28;20300;-69
2021/03/24 03:51:34;;;;;;;65.27;36.70;;;;;;;5.67;100.00;101594.94;4993772;28;20287;-69
2021/03/24 03:54:10;;;;;;;64.13;36.83;;;;;;;5.69;100.00;101600.94;4996342;28;20188;-69
2021/03/24 03:56:40;;;;;;;63.37;36.63;;;;;;;5.74;100.00;101601.16;4999210;28;20258;-69
2021/03/24 03:59:07;;;;;;;65.80;36.13;;;;;;;5.69;100.00;101603.63;5010746;28;20188;-69
2021/03/24 04:01:35;;;;;;;67.33;37.97;;;;;;;5.62;100.00;101598.25;5009737;28;20695;-69
2021/03/24 04:04:10;;;;;;;65.10;36.93;;;;;;;5.66;100.00;101598.66;4993761;28;20666;-70
2021/03/24 04:06:55;;;;;;;61.17;35.87;;;;;;;5.75;100.00;101593.66;4993925;28;20225;-69
2021/03/24 04:09:23;;;;;;;66.10;36.80;;;;;;;5.72;100.00;101589.72;4965372;28;20204;-68
2021/03/24 04:11:53;;;;;;;62.37;37.37;;;;;;;5.85;100.00;101588.59;5008356;28;20276;-68
2021/03/24 04:14:28;;;;;;;60.87;36.67;;;;;;;5.73;100.00;101594.09;4977767;28;20258;-69
2021/03/24 04:16:53;;;;;;;64.17;36.83;;;;;;;5.87;100.00;101602.69;5009751;28;20224;-70
2021/03/24 04:19:21;;;;;;;72.73;37.90;;;;;;;5.89;100.00;101591.69;4994185;28;20219;-68
2021/03/24 04:21:49;;;;;;;67.10;37.57;;;;;;;5.74;100.00;101595.75;5007788;28;20224;-69
2021/03/24 04:24:21;;;;;;;69.33;39.00;;;;;;;5.78;100.00;101593.22;4993566;28;20205;-69
2021/03/24 04:26:48;;;;;;;63.57;36.87;;;;;;;5.64;100.00;101590.81;4998314;28;20224;-69
2021/03/24 04:29:31;;;;;;;68.50;38.13;;;;;;;5.87;100.00;101586.50;5010043;28;20180;-67
2021/03/24 04:31:59;;;;;;;65.13;37.30;;;;;;;5.84;100.00;101596.91;4962042;28;20220;-70
2021/03/24 04:34:24;;;;;;;69.70;38.83;;;;;;;5.88;100.00;101598.16;4993863;28;20487;-68
2021/03/24 04:37:12;;;;;;;66.17;35.83;;;;;;;6.00;100.00;101596.38;4992931;28;20213;-69
2021/03/24 04:39:59;;;;;;;62.13;36.43;;;;;;;5.78;100.00;101595.09;4996190;28;20180;-68
2021/03/24 04:42:47;;;;;;;64.73;37.60;;;;;;;5.79;100.00;101600.25;5011768;28;20641;-71
2021/03/24 04:45:37;;;;;;;62.20;36.57;;;;;;;5.80;100.00;101606.47;4995458;28;20161;-67
2021/03/24 04:48:24;;;;;;;65.80;38.03;;;;;;;5.89;100.00;101600.59;5009435;28;20177;-67
2021/03/24 04:50:54;;;;;;;61.20;36.57;;;;;;;5.79;100.00;101604.84;5008122;28;20290;-68
2021/03/24 04:53:19;;;;;;;67.37;40.03;;;;;;;5.94;100.00;101618.81;5023941;28;20652;-69
2021/03/24 04:55:47;;;;;;;71.50;41.87;;;;;;;5.97;100.00;101612.97;4987102;28;20213;-68
2021/03/24 04:58:42;;;;;;;70.13;41.37;;;;;;;5.87;100.00;101613.47;4994238;28;20184;-67
2021/03/24 05:01:39;;;;;;;76.50;40.73;;;;;;;5.99;100.00;101617.13;4996216;28;20229;-68
2021/03/24 05:04:06;;;;;;;68.07;38.97;;;;;;;5.94;100.00;101618.81;4983347;28;20201;-67
2021/03/24 05:06:35;;;;;;;73.50;40.23;;;;;;;5.93;100.00;101609.88;4977101;28;20214;-68
2021/03/24 05:09:01;;;;;;;69.03;39.50;;;;;;;5.91;100.00;101616.56;4993109;28;20189;-67
2021/03/24 05:11:50;;;;;;;68.37;39.27;;;;;;;5.98;100.00;101607.38;4994567;28;20212;-68
2021/03/24 05:14:24;;;;;;;68.23;40.53;;;;;;;6.06;100.00;101614.38;5041147;28;20185;-68
2021/03/24 05:16:51;;;;;;;69.73;39.00;;;;;;;6.01;100.00;101615.03;5024873;28;20231;-68
2021/03/24 05:19:28;;;;;;;69.27;39.57;;;;;;;6.06;100.00;101612.47;5009348;28;20185;-67
2021/03/24 05:22:17;;;;;;;70.80;40.60;;;;;;;5.88;100.00;101612.44;5023976;28;20225;-68
2021/03/24 05:24:42;;;;;;;69.70;43.67;;;;;;;5.88;100.00;101614.31;5025657;28;20189;-68
2021/03/24 05:27:26;;;;;;;70.10;39.63;;;;;;;5.97;100.00;101611.13;5022057;28;20711;-68
2021/03/24 05:29:53;;;;;;;66.83;37.97;;;;;;;5.93;100.00;101607.19;5002477;28;20210;-67
2021/03/24 05:32:36;;;;;;;83.50;49.53;;;;;;;5.95;100.00;101609.69;4999052;28;20699;-68
2021/03/24 05:35:02;;;;;;;89.93;54.03;;;;;;;6.07;100.00;101600.66;5012341;28;20193;-68
2021/03/24 05:37:29;;;;;;;65.43;40.53;;;;;;;6.12;100.00;101611.63;5041854;28;20737;-67
2021/03/24 05:40:10;;;;;;;71.13;43.10;;;;;;;6.13;100.00;101607.88;5021905;28;20210;-68
2021/03/24 05:42:44;;;;;;;69.37;39.90;;;;;;;6.17;100.00;101603.69;5012181;28;20247;-69
2021/03/24 05:45:28;;;;;;;70.97;39.23;;;;;;;6.30;100.00;101608.97;4994280;28;20258;-71
2021/03/24 05:48:03;;;;;;;67.53;38.23;;;;;;;6.31;100.00;101605.22;4975054;28;20185;-70
2021/03/24 05:50:43;;;;;;;67.53;38.90;;;;;;;6.17;100.00;101603.69;4988783;28;20233;-70
2021/03/24 05:53:30;;;;;;;69.67;39.20;;;;;;;5.99;100.00;101610.88;4988498;28;20189;-69
2021/03/24 05:56:07;;;;;;;66.67;39.37;;;;;;;6.13;100.00;101615.97;4991217;28;20303;-70
2021/03/24 05:58:47;;;;;;;69.20;40.27;;;;;;;6.31;100.00;101599.84;5012705;28;20634;-69
2021/03/24 06:01:18;;;;;;;62.80;38.50;;;;;;;6.20;100.00;101608.66;4996177;28;20719;-68
2021/03/24 06:03:51;;;;;;;66.27;37.90;;;;;;;6.25;100.00;101611.53;5012285;28;20189;-70
2021/03/24 06:06:41;;;;;;;69.33;40.37;;;;;;;6.19;100.00;101613.22;4990928;28;20590;-68
2021/03/24 06:09:24;;;;;;;67.90;39.97;;;;;;;6.30;100.00;101614.34;4993171;28;20205;-69
2021/03/24 06:12:12;;;;;;;66.03;39.37;;;;;;;6.37;100.00;101623.22;4991414;28;20229;-68
2021/03/24 06:15:00;;;;;;;65.57;39.57;;;;;;;6.45;100.00;101615.69;4996617;28;20525;-70
2021/03/24 06:17:49;;;;;;;64.73;37.60;;;;;;;6.60;100.00;101602.66;5002038;28;20243;-72
2021/03/24 06:20:52;;;;;;;64.53;37.57;;;;;;;6.55;100.00;101619.50;5012744;28;20729;-69
2021/03/24 06:23:37;;;;;;;143.63;93.70;;;;;;;6.51;100.00;101606.69;5020330;28;20209;-68
2021/03/24 06:26:13;;;;;;;79.97;46.67;;;;;;;6.61;100.00;101607.00;5010529;28;20255;-68
2021/03/24 06:28:40;;;;;;;68.87;43.93;;;;;;;6.82;100.00;101615.50;5013046;28;20200;-68
2021/03/24 06:31:25;;;;;;;66.67;40.70;;;;;;;6.60;100.00;101606.16;5012852;28;20232;-68
2021/03/24 06:34:38;;;;;;;62.40;38.27;;;;;;;6.76;100.00;101613.69;5011599;28;20200;-68
2021/03/24 06:37:36;;;;;;;65.00;38.73;;;;;;;6.91;100.00;101612.25;4981983;28;20232;-68
2021/03/24 06:40:20;;;;;;;68.10;39.20;;;;;;;6.96;100.00;101617.00;4995343;28;20185;-70
2021/03/24 06:43:04;;;;;;;62.53;39.27;;;;;;;6.98;100.00;101614.91;4994725;28;20240;-69
2021/03/24 06:45:38;;;;;;;65.33;40.47;;;;;;;6.80;100.00;101606.78;5014484;28;20225;-69
2021/03/24 06:48:26;;;;;;;66.47;40.03;;;;;;;6.91;100.00;101614.16;4995510;28;20903;-70
2021/03/24 06:51:29;;;;;;;66.13;40.87;;;;;;;7.13;100.00;101618.03;5011669;28;20597;-69
2021/03/24 06:54:27;;;;;;;61.87;38.83;;;;;;;7.08;100.00;101616.00;5012397;28;20279;-67
2021/03/24 06:57:03;;;;;;;62.70;38.50;;;;;;;7.20;100.00;101603.41;5017695;28;20251;-67
2021/03/24 06:59:48;;;;;;;61.60;39.20;;;;;;;7.29;100.00;101610.16;4996348;28;20185;-68
2021/03/24 07:02:41;;;;;;;64.57;39.10;;;;;;;7.08;100.00;101620.59;4997780;28;20251;-67
2021/03/24 07:05:25;;;;;;;59.07;38.50;;;;;;;7.15;100.00;101611.34;5014804;28;20264;-69
2021/03/24 07:08:31;;;;;;;64.40;39.77;;;;;;;7.38;100.00;101606.91;5008903;28;20191;-67
2021/03/24 07:11:31;;;;;;;61.77;38.47;;;;;;;7.38;100.00;101612.31;5015648;28;20319;-67
2021/03/24 07:14:27;;;;;;;61.87;37.90;;;;;;;7.50;100.00;101607.75;4942723;28;20196;-67
2021/03/24 07:17:09;;;;;;;62.53;38.50;;;;;;;7.39;100.00;101613.94;5011794;28;20232;-67
2021/03/24 07:20:06;;;;;;;62.93;38.83;;;;;;;7.43;100.00;101609.72;5012389;28;20589;-67
2021/03/24 07:23:05;;;;;;;59.47;38.33;;;;;;;7.37;100.00;101624.16;5010878;28;20276;-67
2021/03/24 07:26:00;;;;;;;62.00;39.33;;;;;;;7.84;100.00;101631.41;5010824;28;20224;-68
2021/03/24 07:28:41;;;;;;;63.73;39.93;;;;;;;7.75;100.00;101627.38;4999967;28;20185;-67
2021/03/24 07:31:24;;;;;;;61.77;39.00;;;;;;;7.91;100.00;101629.41;5010972;28;20236;-68
2021/03/24 07:34:04;;;;;;;55.83;37.13;;;;;;;7.81;100.00;101637.25;4995815;28;20250;-67
2021/03/24 07:36:52;;;;;;;56.30;38.87;;;;;;;7.89;100.00;101621.50;4979271;28;20698;-67
2021/03/24 07:39:49;;;;;;;60.00;39.43;;;;;;;8.12;100.00;101627.84;5011200;28;20677;-67
2021/03/24 07:42:15;;;;;;;58.03;37.73;;;;;;;7.90;100.00;101633.19;4989573;28;20229;-68
2021/03/24 07:45:05;;;;;;;58.53;38.43;;;;;;;8.15;100.00;101624.69;5012525;28;20212;-67
2021/03/24 07:47:51;;;;;;;57.60;38.63;;;;;;;7.95;100.00;101619.75;5012437;28;20597;-67
2021/03/24 07:50:36;;;;;;;58.40;38.77;;;;;;;8.08;100.00;101625.81;5013348;28;20676;-69
2021/03/24 07:53:23;;;;;;;57.97;37.87;;;;;;;8.36;100.00;101623.28;5011190;28;20177;-68
2021/03/24 07:55:54;;;;;;;59.37;40.10;;;;;;;8.39;100.00;101628.22;5010727;28;20336;-67
2021/03/24 07:58:46;;;;;;;59.90;39.47;;;;;;;8.42;100.00;101634.00;5013467;28;20212;-67
2021/03/24 08:01:24;;;;;;;60.73;39.77;;;;;;;8.58;100.00;101622.47;5009741;28;20237;-68
2021/03/24 08:03:51;;;;;;;53.67;38.93;;;;;;;8.54;100.00;101622.13;5011071;28;20189;-67
2021/03/24 08:06:44;;;;;;;56.40;39.63;;;;;;;8.92;100.00;101615.16;5009870;28;20232;-67
2021/03/24 08:09:37;;;;;;;57.57;38.07;;;;;;;8.74;100.00;101627.19;5010449;28;20189;-68
2021/03/24 08:12:30;;;;;;;72.57;47.00;;;;;;;8.96;100.00;101616.31;4995082;28;20304;-66
2021/03/24 08:15:07;;;;;;;59.63;39.63;;;;;;;9.20;100.00;101620.63;5010320;28;20181;-67
2021/03/24 08:17:51;;;;;;;56.83;39.60;;;;;;;9.54;100.00;101622.38;4993149;28;20598;-66
2021/03/24 08:20:34;;;;;;;58.07;39.43;;;;;;;9.56;99.57;101617.53;5010754;28;20575;-67
2021/03/24 08:23:06;;;;;;;54.83;38.63;;;;;;;9.69;99.50;101613.47;5003893;28;20212;-67
2021/03/24 08:25:53;;;;;;;56.93;37.97;;;;;;;9.66;97.52;101624.00;5009669;28;20245;-69
2021/03/24 08:28:37;;;;;;;57.80;39.87;;;;;;;9.72;98.42;101618.41;5007729;28;20185;-69
2021/03/24 08:31:18;;;;;;;56.17;38.60;;;;;;;9.94;97.20;101627.53;4994067;28;20765;-68
2021/03/24 08:34:02;;;;;;;58.27;40.07;;;;;;;9.73;98.17;101624.69;5010064;28;20188;-67
2021/03/24 08:36:59;;;;;;;60.07;40.97;;;;;;;9.81;98.92;101625.09;5016334;28;20220;-68
2021/03/24 08:39:39;;;;;;;56.87;39.83;;;;;;;9.79;97.62;101624.50;5029615;28;20184;-70
2021/03/24 08:42:46;;;;;;;60.73;40.13;;;;;;;10.16;96.64;101614.91;5011524;28;20784;-66
2021/03/24 08:45:41;;;;;;;57.50;39.50;;;;;;;10.38;94.82;101613.91;5029016;28;20559;-67
2021/03/24 08:48:10;;;;;;;57.17;40.73;;;;;;;10.36;94.99;101620.66;4984629;28;20555;-67
2021/03/24 08:50:42;;;;;;;55.10;39.40;;;;;;;10.57;92.05;101623.47;5012710;28;20714;-67
2021/03/24 08:53:23;;;;;;;55.70;41.50;;;;;;;10.76;92.98;101617.50;4996235;28;20304;-68
2021/03/24 08:56:33;;;;;;;55.97;39.87;;;;;;;10.84;89.65;101611.63;5012927;28;20223;-68
2021/03/24 08:59:11;;;;;;;58.33;39.93;;;;;;;10.45;91.56;101609.94;4976857;28;20611;-67
2021/03/24 09:02:02;;;;;;;55.47;38.87;;;;;;;10.52;90.06;101605.16;5008207;28;20702;-69
2021/03/24 09:05:14;;;;;;;56.90;39.00;;;;;;;10.71;89.22;101603.81;4961443;28;20279;-69
2021/03/24 09:07:54;;;;;;;58.43;40.20;;;;;;;10.78;88.94;101604.47;4977660;28;20219;-69
2021/03/24 09:10:22;;;;;;;58.60;40.03;;;;;;;10.78;89.71;101604.47;4992879;28;20667;-69
2021/03/24 09:13:13;;;;;;;59.17;41.83;;;;;;;11.08;87.35;101600.28;5008467;28;20197;-69
2021/03/24 09:15:56;;;;;;;57.17;39.93;;;;;;;11.05;87.13;101597.25;5010054;28;20235;-68
2021/03/24 09:18:32;;;;;;;53.30;40.23;;;;;;;10.97;89.05;101603.09;4993808;28;20193;-67
2021/03/24 09:21:07;;;;;;;56.90;40.43;;;;;;;11.44;86.28;101589.59;5008611;28;20228;-70
2021/03/24 09:24:10;;;;;;;54.80;39.87;;;;;;;11.18;86.13;101593.06;5008197;28;20216;-69
2021/03/24 09:27:06;;;;;;;56.30;39.70;;;;;;;11.40;85.56;101588.44;4999163;28;20322;-68
2021/03/24 09:29:37;;;;;;;50.90;38.27;;;;;;;11.20;85.33;101599.06;5009802;28;20188;-68
2021/03/24 09:32:17;;;;;;;55.23;39.80;;;;;;;11.13;85.31;101584.84;4990955;28;20737;-69
2021/03/24 09:35:03;;;;;;;52.13;39.03;;;;;;;10.93;86.33;101583.78;4991026;28;20275;-67
2021/03/24 09:37:40;;;;;;;52.43;38.53;;;;;;;11.28;84.73;101585.03;5008395;28;20703;-69
2021/03/24 09:40:11;;;;;;;51.43;38.57;;;;;;;11.27;84.04;101575.22;5008741;28;20215;-68
2021/03/24 09:42:50;;;;;;;57.33;38.67;;;;;;;11.47;83.96;101571.97;4975706;28;20229;-69
2021/03/24 09:45:19;;;;;;;51.50;38.30;;;;;;;11.75;82.01;101578.78;4972728;28;20196;-69
2021/03/24 09:47:51;;;;;;;51.60;37.87;;;;;;;11.81;79.77;101576.91;4989834;28;20561;-68
2021/03/24 09:50:19;;;;;;;51.97;38.40;;;;;;;11.69;80.78;101565.38;4992217;28;20542;-69
2021/03/24 09:53:14;;;;;;;53.47;38.70;;;;;;;11.88;79.73;101572.09;5009369;28;20196;-69
2021/03/24 09:55:46;;;;;;;51.57;37.97;;;;;;;12.05;79.93;101559.97;5008289;28;20645;-69
2021/03/24 09:58:17;;;;;;;47.23;37.20;;;;;;;12.12;77.60;101564.13;4982747;28;20182;-70
2021/03/24 10:01:07;;;;;;;52.13;37.90;;;;;;;12.37;77.03;101556.16;4990963;28;20240;-69
2021/03/24 10:03:40;;;;;;;52.43;38.57;;;;;;;12.36;76.13;101565.41;4990498;28;20284;-69
2021/03/24 10:06:08;;;;;;;51.47;37.90;;;;;;;12.68;72.42;101562.38;4988079;28;20766;-70
2021/03/24 10:08:41;;;;;;;52.27;37.13;;;;;;;12.50;73.58;101564.69;4973463;28;20214;-69
2021/03/24 10:11:09;;;;;;;48.47;38.00;;;;;;;12.55;74.50;101561.19;4973325;28;20241;-69
2021/03/24 10:14:11;;;;;;;47.73;36.87;;;;;;;12.94;72.29;101547.81;4971868;28;20364;-69
2021/03/24 10:16:39;;;;;;;49.80;35.70;;;;;;;12.80;70.64;101543.94;4962493;28;20232;-68
2021/03/24 10:19:16;;;;;;;45.53;35.23;;;;;;;13.09;70.32;101545.13;4974263;28;20239;-68
2021/03/24 10:21:54;;;;;;;54.40;40.70;;;;;;;13.12;70.33;101553.63;5023536;28;20228;-70
2021/03/24 10:24:23;;;;;;;53.73;41.60;;;;;;;13.05;71.08;101554.13;4993111;28;20184;-67
2021/03/24 10:27:04;;;;;;;57.37;42.33;;;;;;;12.51;73.38;101546.44;4979445;28;20228;-69
2021/03/24 10:29:51;;;;;;;51.80;38.93;;;;;;;12.74;73.26;101547.66;5008199;28;20282;-68
2021/03/24 10:32:36;;;;;;;42.97;34.60;;;;;;;13.04;71.55;101536.97;5009338;28;20228;-69
2021/03/24 10:35:45;;;;;;;44.40;35.17;;;;;;;13.46;68.46;101542.00;5007507;28;20184;-68
2021/03/24 10:38:10;;;;;;;44.60;35.33;;;;;;;13.22;69.21;101540.03;4961253;28;20915;-68
2021/03/24 10:40:38;;;;;;;43.87;34.63;;;;;;;13.45;68.86;101552.38;4991174;28;20241;-68
2021/03/24 10:43:30;;;;;;;44.80;35.03;;;;;;;14.27;65.41;101547.28;4990919;28;20216;-68
2021/03/24 10:46:07;;;;;;;45.53;35.03;;;;;;;14.33;63.77;101538.81;4987222;28;20308;-69
2021/03/24 10:48:34;;;;;;;43.80;35.20;;;;;;;14.02;64.65;101538.28;4979656;28;20184;-68
2021/03/24 10:51:20;;;;;;;44.23;34.77;;;;;;;13.49;66.36;101530.53;4995285;28;20231;-68
2021/03/24 10:53:48;;;;;;;42.50;33.00;;;;;;;13.75;64.10;101521.28;5010578;28;20173;-69
2021/03/24 10:56:34;;;;;;;42.13;33.93;;;;;;;13.98;65.82;101515.31;4999328;28;20684;-70
2021/03/24 10:59:32;;;;;;;38.80;32.63;;;;;;;14.97;61.38;101504.19;4989302;28;20184;-69
2021/03/24 11:02:18;;;;;;;39.93;31.27;;;;;;;14.28;61.22;101516.97;5010459;28;20232;-69
2021/03/24 11:04:55;;;;;;;33.77;27.17;;;;;;;13.46;61.72;101516.63;5011800;28;20185;-68
2021/03/24 11:07:46;;;;;;;30.47;26.63;;;;;;;12.93;63.41;101515.34;4980047;28;20235;-69
2021/03/24 11:10:11;;;;;;;33.47;26.30;;;;;;;12.94;64.22;101506.91;4994834;28;20593;-69
2021/03/24 11:12:51;;;;;;;35.33;27.60;;;;;;;13.41;65.32;101504.88;5010565;28;20235;-70
2021/03/24 11:15:22;;;;;;;36.43;27.07;;;;;;;13.52;62.50;101502.69;5010896;28;20702;-68
2021/03/24 11:17:55;;;;;;;33.37;26.43;;;;;;;13.76;61.52;101503.81;4995667;28;20228;-68
2021/03/24 11:20:42;;;;;;;34.90;26.43;;;;;;;13.22;61.02;101495.53;4979033;28;20185;-69
2021/03/24 11:23:10;;;;;;;33.00;25.30;;;;;;;13.12;62.43;101492.78;5010371;28;20213;-68
2021/03/24 11:25:39;;;;;;;33.23;26.77;;;;;;;13.45;62.67;101495.88;4994687;28;20221;-67
2021/03/24 11:28:14;;;;;;;34.30;24.53;;;;;;;13.87;61.08;101498.09;4983520;28;20185;-68
2021/03/24 11:30:42;;;;;;;31.93;25.13;;;;;;;13.67;61.06;101491.78;4979091;28;20227;-70
2021/03/24 11:33:19;;;;;;;29.37;24.27;;;;;;;13.69;60.13;101506.00;5010391;28;20184;-68
2021/03/24 11:36:02;;;;;;;31.33;25.33;;;;;;;13.92;61.79;101497.28;5010270;28;20779;-68
2021/03/24 11:38:56;;;;;;;32.03;25.40;;;;;;;14.58;58.60;101483.25;4980050;28;20220;-68
2021/03/24 11:41:26;;;;;;;33.73;25.70;;;;;;;14.75;56.51;101488.13;4978818;28;20279;-69
2021/03/24 11:44:06;;;;;;;31.47;25.17;;;;;;;14.39;57.58;101479.47;4976842;28;20215;-69
2021/03/24 11:46:41;;;;;;;29.33;23.87;;;;;;;14.24;57.85;101483.06;4977935;28;20229;-69
2021/03/24 11:49:25;;;;;;;31.73;24.37;;;;;;;14.58;57.08;101483.25;5011030;28;20653;-70
2021/03/24 11:52:08;;;;;;;29.03;22.53;;;;;;;14.39;56.04;101477.56;5009324;28;20657;-69